sensor_id;sensor_type;location;lat;lon;timestamp;P1;durP1;ratioP1;P2;durP2;ratioP2
43070;SDS011;36278;47.952;21.714;2023-02-28T00:02:10;9.43;;;5.30;;
43070;SDS011;36278;47.952;21.714;2023-02-28T00:04:35;9.70;;;5.40;;
43070;SDS011;36278;47.952;21.714;2023-02-28T00:07:01;11.57;;;6.07;;
43070;SDS011;36278;47.952;21.714;2023-02-28T00:09:26;11.47;;;5.83;;
43070;SDS011;36278;47.952;21.714;2023-02-28T00:11:52;9.10;;;5.40;;
43070;SDS011;36278;47.952;21.714;2023-02-28T00:14:17;9.97;;;5.40;;
43070;SDS011;36278;47.952;21.714;2023-02-28T00:16:43;8.57;;;5.53;;
43070;SDS011;36278;47.952;21.714;2023-02-28T00:19:08;9.23;;;5.87;;
43070;SDS011;36278;47.952;21.714;2023-02-28T00:21:34;9.10;;;5.50;;
43070;SDS011;36278;47.952;21.714;2023-02-28T00:24:00;9.23;;;6.10;;
43070;SDS011;36278;47.952;21.714;2023-02-28T00:26:26;7.37;;;5.33;;
43070;SDS011;36278;47.952;21.714;2023-02-28T00:28:52;10.30;;;5.80;;
43070;SDS011;36278;47.952;21.714;2023-02-28T00:31:17;11.73;;;6.30;;
43070;SDS011;36278;47.952;21.714;2023-02-28T00:33:43;11.53;;;6.17;;
43070;SDS011;36278;47.952;21.714;2023-02-28T00:36:09;8.73;;;5.13;;
43070;SDS011;36278;47.952;21.714;2023-02-28T00:38:36;8.87;;;5.80;;
43070;SDS011;36278;47.952;21.714;2023-02-28T00:41:02;9.37;;;5.83;;
43070;SDS011;36278;47.952;21.714;2023-02-28T00:43:29;8.67;;;5.30;;
43070;SDS011;36278;47.952;21.714;2023-02-28T00:45:56;9.53;;;5.43;;
43070;SDS011;36278;47.952;21.714;2023-02-28T00:48:21;11.67;;;5.63;;
43070;SDS011;36278;47.952;21.714;2023-02-28T00:50:48;8.93;;;5.20;;
43070;SDS011;36278;47.952;21.714;2023-02-28T00:53:14;8.73;;;5.07;;
43070;SDS011;36278;47.952;21.714;2023-02-28T00:55:40;8.90;;;5.13;;
43070;SDS011;36278;47.952;21.714;2023-02-28T00:58:05;9.10;;;5.57;;
43070;SDS011;36278;47.952;21.714;2023-02-28T01:00:31;7.93;;;5.07;;
43070;SDS011;36278;47.952;21.714;2023-02-28T01:02:56;9.40;;;5.53;;
43070;SDS011;36278;47.952;21.714;2023-02-28T01:05:22;10.10;;;5.70;;
43070;SDS011;36278;47.952;21.714;2023-02-28T01:07:47;8.50;;;5.50;;
43070;SDS011;36278;47.952;21.714;2023-02-28T01:10:13;9.17;;;5.73;;
43070;SDS011;36278;47.952;21.714;2023-02-28T01:12:38;8.83;;;5.07;;
43070;SDS011;36278;47.952;21.714;2023-02-28T01:15:04;8.93;;;4.93;;
43070;SDS011;36278;47.952;21.714;2023-02-28T01:17:30;9.90;;;5.43;;
43070;SDS011;36278;47.952;21.714;2023-02-28T01:19:55;9.60;;;5.57;;
43070;SDS011;36278;47.952;21.714;2023-02-28T01:22:21;9.20;;;5.47;;
43070;SDS011;36278;47.952;21.714;2023-02-28T01:24:46;9.90;;;5.60;;
43070;SDS011;36278;47.952;21.714;2023-02-28T01:27:13;9.10;;;5.33;;
43070;SDS011;36278;47.952;21.714;2023-02-28T01:29:38;8.73;;;5.50;;
43070;SDS011;36278;47.952;21.714;2023-02-28T01:32:04;9.17;;;5.20;;
43070;SDS011;36278;47.952;21.714;2023-02-28T01:34:29;7.20;;;4.60;;
43070;SDS011;36278;47.952;21.714;2023-02-28T01:36:55;9.97;;;5.57;;
43070;SDS011;36278;47.952;21.714;2023-02-28T01:39:20;7.70;;;5.10;;
43070;SDS011;36278;47.952;21.714;2023-02-28T01:41:46;9.33;;;5.00;;
43070;SDS011;36278;47.952;21.714;2023-02-28T01:47:15;8.93;;;5.63;;
43070;SDS011;36278;47.952;21.714;2023-02-28T01:49:41;8.57;;;4.60;;
43070;SDS011;36278;47.952;21.714;2023-02-28T01:52:07;8.20;;;5.13;;
43070;SDS011;36278;47.952;21.714;2023-02-28T01:54:43;8.10;;;4.93;;
43070;SDS011;36278;47.952;21.714;2023-02-28T01:57:14;8.67;;;4.97;;
43070;SDS011;36278;47.952;21.714;2023-02-28T01:59:51;7.97;;;4.93;;
43070;SDS011;36278;47.952;21.714;2023-02-28T02:02:20;9.00;;;5.03;;
43070;SDS011;36278;47.952;21.714;2023-02-28T02:04:55;8.43;;;5.03;;
43070;SDS011;36278;47.952;21.714;2023-02-28T02:07:26;9.07;;;4.63;;
43070;SDS011;36278;47.952;21.714;2023-02-28T02:09:59;6.90;;;4.60;;
43070;SDS011;36278;47.952;21.714;2023-02-28T02:18:04;8.33;;;5.10;;
43070;SDS011;36278;47.952;21.714;2023-02-28T02:37:12;7.60;;;4.60;;
43070;SDS011;36278;47.952;21.714;2023-02-28T02:39:50;7.20;;;4.40;;
43070;SDS011;36278;47.952;21.714;2023-02-28T02:42:27;9.98;;;4.68;;
43070;SDS011;36278;47.952;21.714;2023-02-28T02:45:12;7.40;;;5.07;;
43070;SDS011;36278;47.952;21.714;2023-02-28T02:47:43;7.10;;;4.23;;
43070;SDS011;36278;47.952;21.714;2023-02-28T02:50:14;8.60;;;5.17;;
43070;SDS011;36278;47.952;21.714;2023-02-28T02:52:48;8.90;;;5.00;;
43070;SDS011;36278;47.952;21.714;2023-02-28T02:55:18;8.20;;;4.97;;
43070;SDS011;36278;47.952;21.714;2023-02-28T03:00:23;8.43;;;5.20;;
43070;SDS011;36278;47.952;21.714;2023-02-28T03:02:54;8.43;;;5.00;;
43070;SDS011;36278;47.952;21.714;2023-02-28T03:05:23;9.13;;;5.40;;
43070;SDS011;36278;47.952;21.714;2023-02-28T03:07:52;7.33;;;4.93;;
43070;SDS011;36278;47.952;21.714;2023-02-28T03:12:54;10.97;;;5.77;;
43070;SDS011;36278;47.952;21.714;2023-02-28T03:15:58;10.47;;;5.07;;
43070;SDS011;36278;47.952;21.714;2023-02-28T03:22:06;6.67;;;4.57;;
43070;SDS011;36278;47.952;21.714;2023-02-28T03:24:57;9.97;;;4.97;;
43070;SDS011;36278;47.952;21.714;2023-02-28T03:27:27;9.77;;;5.35;;
43070;SDS011;36278;47.952;21.714;2023-02-28T03:30:00;8.90;;;5.47;;
43070;SDS011;36278;47.952;21.714;2023-02-28T03:32:33;11.20;;;6.00;;
43070;SDS011;36278;47.952;21.714;2023-02-28T03:35:05;7.50;;;5.67;;
43070;SDS011;36278;47.952;21.714;2023-02-28T03:37:37;9.40;;;4.97;;
43070;SDS011;36278;47.952;21.714;2023-02-28T03:40:07;7.83;;;5.17;;
43070;SDS011;36278;47.952;21.714;2023-02-28T03:42:37;12.33;;;5.37;;
43070;SDS011;36278;47.952;21.714;2023-02-28T03:45:14;8.30;;;5.47;;
43070;SDS011;36278;47.952;21.714;2023-02-28T03:47:47;9.90;;;5.63;;
43070;SDS011;36278;47.952;21.714;2023-02-28T03:50:21;8.93;;;5.60;;
43070;SDS011;36278;47.952;21.714;2023-02-28T03:53:13;8.40;;;5.50;;
43070;SDS011;36278;47.952;21.714;2023-02-28T03:55:49;9.97;;;5.97;;
43070;SDS011;36278;47.952;21.714;2023-02-28T04:01:18;8.87;;;5.43;;
43070;SDS011;36278;47.952;21.714;2023-02-28T04:03:49;7.80;;;5.50;;
43070;SDS011;36278;47.952;21.714;2023-02-28T04:06:19;7.97;;;5.40;;
43070;SDS011;36278;47.952;21.714;2023-02-28T04:08:46;11.70;;;5.83;;
43070;SDS011;36278;47.952;21.714;2023-02-28T04:11:16;8.40;;;5.63;;
43070;SDS011;36278;47.952;21.714;2023-02-28T04:16:11;10.30;;;6.27;;
43070;SDS011;36278;47.952;21.714;2023-02-28T04:18:37;9.40;;;5.97;;
43070;SDS011;36278;47.952;21.714;2023-02-28T04:21:03;8.13;;;5.30;;
43070;SDS011;36278;47.952;21.714;2023-02-28T04:23:29;10.40;;;6.40;;
43070;SDS011;36278;47.952;21.714;2023-02-28T04:25:55;15.10;;;6.23;;
43070;SDS011;36278;47.952;21.714;2023-02-28T04:28:21;10.17;;;6.13;;
43070;SDS011;36278;47.952;21.714;2023-02-28T04:30:46;10.73;;;5.83;;
43070;SDS011;36278;47.952;21.714;2023-02-28T04:33:12;10.97;;;7.10;;
43070;SDS011;36278;47.952;21.714;2023-02-28T04:35:37;9.77;;;6.03;;
43070;SDS011;36278;47.952;21.714;2023-02-28T04:38:03;10.57;;;5.83;;
43070;SDS011;36278;47.952;21.714;2023-02-28T04:40:28;10.50;;;6.57;;
43070;SDS011;36278;47.952;21.714;2023-02-28T04:42:54;11.73;;;7.47;;
43070;SDS011;36278;47.952;21.714;2023-02-28T04:45:20;13.00;;;8.67;;
43070;SDS011;36278;47.952;21.714;2023-02-28T04:47:45;14.53;;;8.83;;
43070;SDS011;36278;47.952;21.714;2023-02-28T04:50:11;12.60;;;8.37;;
43070;SDS011;36278;47.952;21.714;2023-02-28T04:52:36;10.60;;;7.23;;
43070;SDS011;36278;47.952;21.714;2023-02-28T04:55:02;13.30;;;7.53;;
43070;SDS011;36278;47.952;21.714;2023-02-28T04:57:28;13.23;;;8.70;;
43070;SDS011;36278;47.952;21.714;2023-02-28T04:59:55;9.17;;;6.97;;
43070;SDS011;36278;47.952;21.714;2023-02-28T05:02:20;10.87;;;7.70;;
43070;SDS011;36278;47.952;21.714;2023-02-28T05:04:46;15.27;;;9.43;;
43070;SDS011;36278;47.952;21.714;2023-02-28T05:07:12;15.43;;;9.67;;
43070;SDS011;36278;47.952;21.714;2023-02-28T05:09:37;11.97;;;7.80;;
43070;SDS011;36278;47.952;21.714;2023-02-28T05:12:03;12.50;;;7.73;;
43070;SDS011;36278;47.952;21.714;2023-02-28T05:14:28;12.07;;;7.23;;
43070;SDS011;36278;47.952;21.714;2023-02-28T05:16:53;9.60;;;6.97;;
43070;SDS011;36278;47.952;21.714;2023-02-28T05:19:19;11.57;;;6.77;;
43070;SDS011;36278;47.952;21.714;2023-02-28T05:21:53;11.23;;;7.10;;
43070;SDS011;36278;47.952;21.714;2023-02-28T05:26:48;13.53;;;7.63;;
43070;SDS011;36278;47.952;21.714;2023-02-28T05:29:15;13.93;;;7.47;;
43070;SDS011;36278;47.952;21.714;2023-02-28T05:31:41;12.07;;;7.73;;
43070;SDS011;36278;47.952;21.714;2023-02-28T05:34:07;10.80;;;7.87;;
43070;SDS011;36278;47.952;21.714;2023-02-28T05:36:32;10.83;;;7.93;;
43070;SDS011;36278;47.952;21.714;2023-02-28T05:38:58;12.67;;;8.40;;
43070;SDS011;36278;47.952;21.714;2023-02-28T05:41:23;13.20;;;9.13;;
43070;SDS011;36278;47.952;21.714;2023-02-28T05:43:51;18.83;;;10.17;;
43070;SDS011;36278;47.952;21.714;2023-02-28T05:46:16;13.23;;;9.50;;
43070;SDS011;36278;47.952;21.714;2023-02-28T05:48:42;11.27;;;7.70;;
43070;SDS011;36278;47.952;21.714;2023-02-28T05:51:10;14.30;;;7.53;;
43070;SDS011;36278;47.952;21.714;2023-02-28T05:53:36;11.77;;;7.87;;
43070;SDS011;36278;47.952;21.714;2023-02-28T05:56:02;13.33;;;7.20;;
43070;SDS011;36278;47.952;21.714;2023-02-28T05:58:28;10.03;;;7.33;;
43070;SDS011;36278;47.952;21.714;2023-02-28T06:00:58;14.47;;;7.67;;
43070;SDS011;36278;47.952;21.714;2023-02-28T06:03:25;11.30;;;7.10;;
43070;SDS011;36278;47.952;21.714;2023-02-28T06:05:51;10.57;;;7.03;;
43070;SDS011;36278;47.952;21.714;2023-02-28T06:08:17;13.07;;;7.83;;
43070;SDS011;36278;47.952;21.714;2023-02-28T06:10:43;11.50;;;7.90;;
43070;SDS011;36278;47.952;21.714;2023-02-28T06:13:10;12.83;;;8.57;;
43070;SDS011;36278;47.952;21.714;2023-02-28T06:15:37;13.10;;;7.60;;
43070;SDS011;36278;47.952;21.714;2023-02-28T06:18:03;14.00;;;8.33;;
43070;SDS011;36278;47.952;21.714;2023-02-28T06:20:29;16.97;;;8.43;;
43070;SDS011;36278;47.952;21.714;2023-02-28T06:22:58;16.63;;;8.57;;
43070;SDS011;36278;47.952;21.714;2023-02-28T06:25:24;11.47;;;7.77;;
43070;SDS011;36278;47.952;21.714;2023-02-28T06:27:50;12.07;;;8.20;;
43070;SDS011;36278;47.952;21.714;2023-02-28T06:30:16;13.17;;;8.20;;
43070;SDS011;36278;47.952;21.714;2023-02-28T06:32:42;12.43;;;8.13;;
43070;SDS011;36278;47.952;21.714;2023-02-28T06:35:07;11.87;;;7.30;;
43070;SDS011;36278;47.952;21.714;2023-02-28T06:37:33;19.20;;;9.00;;
43070;SDS011;36278;47.952;21.714;2023-02-28T06:39:58;13.13;;;8.87;;
43070;SDS011;36278;47.952;21.714;2023-02-28T06:42:24;14.33;;;9.37;;
43070;SDS011;36278;47.952;21.714;2023-02-28T06:44:54;12.73;;;8.83;;
43070;SDS011;36278;47.952;21.714;2023-02-28T06:47:20;14.37;;;7.83;;
43070;SDS011;36278;47.952;21.714;2023-02-28T06:49:46;12.80;;;7.93;;
43070;SDS011;36278;47.952;21.714;2023-02-28T06:52:12;16.17;;;7.67;;
43070;SDS011;36278;47.952;21.714;2023-02-28T06:54:37;12.43;;;7.83;;
43070;SDS011;36278;47.952;21.714;2023-02-28T06:57:03;12.87;;;7.57;;
43070;SDS011;36278;47.952;21.714;2023-02-28T06:59:28;12.33;;;7.53;;
43070;SDS011;36278;47.952;21.714;2023-02-28T07:01:54;11.23;;;7.77;;
43070;SDS011;36278;47.952;21.714;2023-02-28T07:04:20;11.43;;;8.03;;
43070;SDS011;36278;47.952;21.714;2023-02-28T07:06:46;12.50;;;7.93;;
43070;SDS011;36278;47.952;21.714;2023-02-28T07:09:12;12.10;;;8.30;;
43070;SDS011;36278;47.952;21.714;2023-02-28T07:11:39;11.60;;;7.90;;
43070;SDS011;36278;47.952;21.714;2023-02-28T07:14:05;10.63;;;7.23;;
43070;SDS011;36278;47.952;21.714;2023-02-28T07:16:31;14.50;;;9.27;;
43070;SDS011;36278;47.952;21.714;2023-02-28T07:18:57;15.57;;;8.67;;
43070;SDS011;36278;47.952;21.714;2023-02-28T07:21:23;13.00;;;8.53;;
43070;SDS011;36278;47.952;21.714;2023-02-28T07:23:48;13.33;;;8.57;;
43070;SDS011;36278;47.952;21.714;2023-02-28T07:26:16;12.57;;;7.53;;
43070;SDS011;36278;47.952;21.714;2023-02-28T07:28:42;13.40;;;7.57;;
43070;SDS011;36278;47.952;21.714;2023-02-28T07:31:09;11.20;;;7.70;;
43070;SDS011;36278;47.952;21.714;2023-02-28T07:33:37;13.83;;;8.67;;
43070;SDS011;36278;47.952;21.714;2023-02-28T07:36:07;15.30;;;8.37;;
43070;SDS011;36278;47.952;21.714;2023-02-28T07:38:38;13.10;;;8.13;;
43070;SDS011;36278;47.952;21.714;2023-02-28T07:41:04;14.50;;;7.67;;
43070;SDS011;36278;47.952;21.714;2023-02-28T07:43:30;8.63;;;6.37;;
43070;SDS011;36278;47.952;21.714;2023-02-28T07:46:00;10.23;;;7.00;;
43070;SDS011;36278;47.952;21.714;2023-02-28T07:48:27;13.30;;;7.60;;
43070;SDS011;36278;47.952;21.714;2023-02-28T07:50:56;12.83;;;7.43;;
43070;SDS011;36278;47.952;21.714;2023-02-28T07:53:22;11.90;;;8.30;;
43070;SDS011;36278;47.952;21.714;2023-02-28T07:55:47;14.83;;;8.23;;
43070;SDS011;36278;47.952;21.714;2023-02-28T07:58:13;12.80;;;7.50;;
43070;SDS011;36278;47.952;21.714;2023-02-28T08:00:38;14.57;;;9.30;;
43070;SDS011;36278;47.952;21.714;2023-02-28T08:03:04;13.17;;;9.10;;
43070;SDS011;36278;47.952;21.714;2023-02-28T08:05:29;11.53;;;7.57;;
43070;SDS011;36278;47.952;21.714;2023-02-28T08:07:56;13.43;;;8.30;;
43070;SDS011;36278;47.952;21.714;2023-02-28T08:10:22;12.40;;;8.47;;
43070;SDS011;36278;47.952;21.714;2023-02-28T08:12:48;11.23;;;8.27;;
43070;SDS011;36278;47.952;21.714;2023-02-28T08:15:14;17.67;;;10.87;;
43070;SDS011;36278;47.952;21.714;2023-02-28T08:17:40;10.20;;;7.70;;
43070;SDS011;36278;47.952;21.714;2023-02-28T08:20:05;10.30;;;7.50;;
43070;SDS011;36278;47.952;21.714;2023-02-28T08:22:31;11.63;;;7.20;;
43070;SDS011;36278;47.952;21.714;2023-02-28T08:24:57;12.97;;;7.80;;
43070;SDS011;36278;47.952;21.714;2023-02-28T08:27:22;11.87;;;7.40;;
43070;SDS011;36278;47.952;21.714;2023-02-28T08:29:48;10.57;;;7.33;;
43070;SDS011;36278;47.952;21.714;2023-02-28T08:32:13;10.10;;;7.57;;
43070;SDS011;36278;47.952;21.714;2023-02-28T08:34:39;12.17;;;8.60;;
43070;SDS011;36278;47.952;21.714;2023-02-28T08:37:05;13.07;;;8.30;;
43070;SDS011;36278;47.952;21.714;2023-02-28T08:39:34;11.63;;;7.77;;
43070;SDS011;36278;47.952;21.714;2023-02-28T08:42:01;11.70;;;7.47;;
43070;SDS011;36278;47.952;21.714;2023-02-28T08:44:27;14.97;;;7.93;;
43070;SDS011;36278;47.952;21.714;2023-02-28T08:46:52;10.27;;;7.27;;
43070;SDS011;36278;47.952;21.714;2023-02-28T08:49:18;12.20;;;7.60;;
43070;SDS011;36278;47.952;21.714;2023-02-28T08:51:44;13.20;;;8.40;;
43070;SDS011;36278;47.952;21.714;2023-02-28T08:54:09;13.10;;;7.60;;
43070;SDS011;36278;47.952;21.714;2023-02-28T08:56:37;10.80;;;8.13;;
43070;SDS011;36278;47.952;21.714;2023-02-28T08:59:04;11.73;;;7.53;;
43070;SDS011;36278;47.952;21.714;2023-02-28T09:01:29;12.03;;;7.43;;
43070;SDS011;36278;47.952;21.714;2023-02-28T09:03:56;11.17;;;7.50;;
43070;SDS011;36278;47.952;21.714;2023-02-28T09:06:23;10.37;;;7.30;;
43070;SDS011;36278;47.952;21.714;2023-02-28T09:08:50;9.23;;;6.93;;
43070;SDS011;36278;47.952;21.714;2023-02-28T09:11:16;9.00;;;6.83;;
43070;SDS011;36278;47.952;21.714;2023-02-28T09:13:43;11.67;;;7.10;;
43070;SDS011;36278;47.952;21.714;2023-02-28T09:16:10;11.03;;;7.83;;
43070;SDS011;36278;47.952;21.714;2023-02-28T09:18:37;15.43;;;8.23;;
43070;SDS011;36278;47.952;21.714;2023-02-28T09:21:06;12.00;;;7.50;;
43070;SDS011;36278;47.952;21.714;2023-02-28T09:23:36;15.60;;;9.30;;
43070;SDS011;36278;47.952;21.714;2023-02-28T09:26:05;12.57;;;7.87;;
43070;SDS011;36278;47.952;21.714;2023-02-28T09:28:31;14.57;;;7.43;;
43070;SDS011;36278;47.952;21.714;2023-02-28T09:30:56;12.13;;;7.40;;
43070;SDS011;36278;47.952;21.714;2023-02-28T09:33:25;10.13;;;6.97;;
43070;SDS011;36278;47.952;21.714;2023-02-28T09:35:57;10.43;;;7.67;;
43070;SDS011;36278;47.952;21.714;2023-02-28T09:38:24;11.85;;;8.05;;
43070;SDS011;36278;47.952;21.714;2023-02-28T09:40:51;14.80;;;9.03;;
43070;SDS011;36278;47.952;21.714;2023-02-28T09:43:21;13.43;;;8.20;;
43070;SDS011;36278;47.952;21.714;2023-02-28T09:45:52;13.00;;;8.93;;
43070;SDS011;36278;47.952;21.714;2023-02-28T09:48:29;13.33;;;8.63;;
43070;SDS011;36278;47.952;21.714;2023-02-28T09:53:59;10.93;;;7.13;;
43070;SDS011;36278;47.952;21.714;2023-02-28T09:56:26;10.80;;;7.23;;
43070;SDS011;36278;47.952;21.714;2023-02-28T09:59:17;10.07;;;6.83;;
43070;SDS011;36278;47.952;21.714;2023-02-28T10:04:59;8.83;;;6.53;;
43070;SDS011;36278;47.952;21.714;2023-02-28T10:13:19;11.20;;;7.93;;
43070;SDS011;36278;47.952;21.714;2023-02-28T10:15:50;11.27;;;7.37;;
43070;SDS011;36278;47.952;21.714;2023-02-28T10:18:24;11.17;;;7.53;;
43070;SDS011;36278;47.952;21.714;2023-02-28T10:20:53;10.90;;;7.55;;
43070;SDS011;36278;47.952;21.714;2023-02-28T10:23:23;10.17;;;7.47;;
43070;SDS011;36278;47.952;21.714;2023-02-28T10:26:14;10.33;;;7.43;;
43070;SDS011;36278;47.952;21.714;2023-02-28T10:28:43;9.60;;;7.03;;
43070;SDS011;36278;47.952;21.714;2023-02-28T10:31:18;11.90;;;7.13;;
43070;SDS011;36278;47.952;21.714;2023-02-28T10:33:44;9.77;;;7.23;;
43070;SDS011;36278;47.952;21.714;2023-02-28T10:36:14;10.77;;;7.70;;
43070;SDS011;36278;47.952;21.714;2023-02-28T10:38:42;10.47;;;6.87;;
43070;SDS011;36278;47.952;21.714;2023-02-28T10:41:13;10.17;;;7.47;;
43070;SDS011;36278;47.952;21.714;2023-02-28T10:43:40;9.87;;;7.33;;
43070;SDS011;36278;47.952;21.714;2023-02-28T10:48:34;10.13;;;7.40;;
43070;SDS011;36278;47.952;21.714;2023-02-28T10:51:01;9.47;;;7.10;;
43070;SDS011;36278;47.952;21.714;2023-02-28T10:53:39;9.00;;;6.20;;
43070;SDS011;36278;47.952;21.714;2023-02-28T10:58:57;7.97;;;5.77;;
43070;SDS011;36278;47.952;21.714;2023-02-28T11:04:12;9.57;;;6.67;;
43070;SDS011;36278;47.952;21.714;2023-02-28T11:06:43;51.40;;;8.80;;
43070;SDS011;36278;47.952;21.714;2023-02-28T11:09:18;13.00;;;7.00;;
43070;SDS011;36278;47.952;21.714;2023-02-28T11:12:08;12.50;;;6.43;;
43070;SDS011;36278;47.952;21.714;2023-02-28T11:14:50;9.10;;;6.50;;
43070;SDS011;36278;47.952;21.714;2023-02-28T11:17:29;9.03;;;6.47;;
43070;SDS011;36278;47.952;21.714;2023-02-28T11:19:57;8.30;;;6.10;;
43070;SDS011;36278;47.952;21.714;2023-02-28T11:22:28;7.80;;;6.07;;
43070;SDS011;36278;47.952;21.714;2023-02-28T11:24:57;9.73;;;6.10;;
43070;SDS011;36278;47.952;21.714;2023-02-28T11:29:55;8.70;;;6.20;;
43070;SDS011;36278;47.952;21.714;2023-02-28T11:32:22;10.30;;;6.23;;
43070;SDS011;36278;47.952;21.714;2023-02-28T11:35:03;8.10;;;5.83;;
43070;SDS011;36278;47.952;21.714;2023-02-28T11:37:30;8.60;;;6.67;;
43070;SDS011;36278;47.952;21.714;2023-02-28T11:39:57;7.87;;;6.03;;
43070;SDS011;36278;47.952;21.714;2023-02-28T11:42:37;9.63;;;6.50;;
43070;SDS011;36278;47.952;21.714;2023-02-28T11:55:54;8.40;;;6.57;;
43070;SDS011;36278;47.952;21.714;2023-02-28T11:58:38;8.50;;;6.20;;
43070;SDS011;36278;47.952;21.714;2023-02-28T12:20:22;8.53;;;6.23;;
43070;SDS011;36278;47.952;21.714;2023-02-28T12:28:07;9.23;;;7.00;;
43070;SDS011;36278;47.952;21.714;2023-02-28T12:30:37;9.87;;;7.03;;
43070;SDS011;36278;47.952;21.714;2023-02-28T12:33:15;9.90;;;6.97;;
43070;SDS011;36278;47.952;21.714;2023-02-28T12:35:49;9.23;;;6.82;;
43070;SDS011;36278;47.952;21.714;2023-02-28T12:38:37;11.00;;;7.23;;
43070;SDS011;36278;47.952;21.714;2023-02-28T12:44:00;12.10;;;7.97;;
43070;SDS011;36278;47.952;21.714;2023-02-28T12:46:32;10.97;;;6.90;;
43070;SDS011;36278;47.952;21.714;2023-02-28T12:49:05;9.50;;;6.70;;
43070;SDS011;36278;47.952;21.714;2023-02-28T12:51:35;12.23;;;6.93;;
43070;SDS011;36278;47.952;21.714;2023-02-28T12:59:40;9.98;;;6.03;;
43070;SDS011;36278;47.952;21.714;2023-02-28T13:11:01;9.87;;;7.03;;
43070;SDS011;36278;47.952;21.714;2023-02-28T13:13:28;9.83;;;6.60;;
43070;SDS011;36278;47.952;21.714;2023-02-28T13:18:29;34.00;;;8.30;;
43070;SDS011;36278;47.952;21.714;2023-02-28T13:20:55;8.07;;;6.57;;
43070;SDS011;36278;47.952;21.714;2023-02-28T13:26:17;8.40;;;6.17;;
43070;SDS011;36278;47.952;21.714;2023-02-28T13:31:19;10.20;;;6.50;;
43070;SDS011;36278;47.952;21.714;2023-02-28T13:36:26;80.57;;;11.80;;
43070;SDS011;36278;47.952;21.714;2023-02-28T13:39:00;10.07;;;6.43;;
43070;SDS011;36278;47.952;21.714;2023-02-28T13:41:47;11.07;;;6.50;;
43070;SDS011;36278;47.952;21.714;2023-02-28T13:44:20;10.50;;;6.57;;
43070;SDS011;36278;47.952;21.714;2023-02-28T13:57:45;13.80;;;9.18;;
43070;SDS011;36278;47.952;21.714;2023-02-28T14:11:40;10.20;;;7.23;;
43070;SDS011;36278;47.952;21.714;2023-02-28T14:14:07;12.50;;;7.50;;
43070;SDS011;36278;47.952;21.714;2023-02-28T14:16:47;8.57;;;6.13;;
43070;SDS011;36278;47.952;21.714;2023-02-28T14:19:25;11.03;;;7.27;;
43070;SDS011;36278;47.952;21.714;2023-02-28T14:38:18;14.13;;;9.97;;
43070;SDS011;36278;47.952;21.714;2023-02-28T14:40:49;11.02;;;7.80;;
43070;SDS011;36278;47.952;21.714;2023-02-28T14:43:21;13.83;;;8.30;;
43070;SDS011;36278;47.952;21.714;2023-02-28T14:45:49;25.37;;;17.33;;
43070;SDS011;36278;47.952;21.714;2023-02-28T14:48:21;13.02;;;8.23;;
43070;SDS011;36278;47.952;21.714;2023-02-28T14:50:49;10.00;;;7.30;;
43070;SDS011;36278;47.952;21.714;2023-02-28T14:53:18;10.00;;;7.90;;
43070;SDS011;36278;47.952;21.714;2023-02-28T14:55:46;10.53;;;7.23;;
43070;SDS011;36278;47.952;21.714;2023-02-28T14:58:24;11.37;;;8.20;;
43070;SDS011;36278;47.952;21.714;2023-02-28T15:00:56;9.33;;;7.37;;
43070;SDS011;36278;47.952;21.714;2023-02-28T15:03:30;9.90;;;7.20;;
43070;SDS011;36278;47.952;21.714;2023-02-28T15:06:01;15.93;;;8.40;;
43070;SDS011;36278;47.952;21.714;2023-02-28T15:08:28;10.13;;;6.97;;
43070;SDS011;36278;47.952;21.714;2023-02-28T15:13:45;11.10;;;7.70;;
43070;SDS011;36278;47.952;21.714;2023-02-28T15:16:22;11.33;;;7.07;;
43070;SDS011;36278;47.952;21.714;2023-02-28T15:21:26;10.43;;;7.60;;
43070;SDS011;36278;47.952;21.714;2023-02-28T15:24:06;11.07;;;8.07;;
43070;SDS011;36278;47.952;21.714;2023-02-28T15:26:40;10.20;;;7.20;;
43070;SDS011;36278;47.952;21.714;2023-02-28T15:29:23;12.07;;;7.50;;
43070;SDS011;36278;47.952;21.714;2023-02-28T15:31:58;10.17;;;8.10;;
43070;SDS011;36278;47.952;21.714;2023-02-28T15:34:40;14.87;;;7.87;;
43070;SDS011;36278;47.952;21.714;2023-02-28T15:40:05;13.03;;;8.60;;
43070;SDS011;36278;47.952;21.714;2023-02-28T15:42:38;12.20;;;8.40;;
43070;SDS011;36278;47.952;21.714;2023-02-28T15:45:03;11.00;;;8.03;;
43070;SDS011;36278;47.952;21.714;2023-02-28T15:47:29;11.30;;;7.40;;
43070;SDS011;36278;47.952;21.714;2023-02-28T15:49:59;10.77;;;7.80;;
43070;SDS011;36278;47.952;21.714;2023-02-28T15:55:08;12.73;;;8.67;;
43070;SDS011;36278;47.952;21.714;2023-02-28T15:57:38;14.40;;;8.27;;
43070;SDS011;36278;47.952;21.714;2023-02-28T16:00:06;14.73;;;8.10;;
43070;SDS011;36278;47.952;21.714;2023-02-28T16:02:38;12.48;;;8.65;;
43070;SDS011;36278;47.952;21.714;2023-02-28T16:07:36;12.63;;;7.90;;
43070;SDS011;36278;47.952;21.714;2023-02-28T16:10:03;11.33;;;8.17;;
43070;SDS011;36278;47.952;21.714;2023-02-28T16:12:31;11.87;;;8.33;;
43070;SDS011;36278;47.952;21.714;2023-02-28T16:14:59;10.37;;;7.60;;
43070;SDS011;36278;47.952;21.714;2023-02-28T16:17:28;11.93;;;7.83;;
43070;SDS011;36278;47.952;21.714;2023-02-28T16:19:57;13.17;;;8.30;;
43070;SDS011;36278;47.952;21.714;2023-02-28T16:22:33;14.37;;;8.33;;
43070;SDS011;36278;47.952;21.714;2023-02-28T16:24:59;12.87;;;8.70;;
43070;SDS011;36278;47.952;21.714;2023-02-28T16:27:26;14.20;;;8.63;;
43070;SDS011;36278;47.952;21.714;2023-02-28T16:29:58;11.18;;;8.10;;
43070;SDS011;36278;47.952;21.714;2023-02-28T16:32:23;17.87;;;9.27;;
43070;SDS011;36278;47.952;21.714;2023-02-28T16:34:49;12.83;;;8.97;;
43070;SDS011;36278;47.952;21.714;2023-02-28T16:37:16;14.17;;;8.23;;
43070;SDS011;36278;47.952;21.714;2023-02-28T16:39:43;13.63;;;8.70;;
43070;SDS011;36278;47.952;21.714;2023-02-28T16:42:23;15.40;;;8.97;;
43070;SDS011;36278;47.952;21.714;2023-02-28T16:44:52;15.00;;;8.70;;
43070;SDS011;36278;47.952;21.714;2023-02-28T16:47:18;11.70;;;8.50;;
43070;SDS011;36278;47.952;21.714;2023-02-28T16:49:44;16.47;;;8.70;;
43070;SDS011;36278;47.952;21.714;2023-02-28T16:52:10;13.93;;;9.77;;
43070;SDS011;36278;47.952;21.714;2023-02-28T16:54:37;14.03;;;9.50;;
43070;SDS011;36278;47.952;21.714;2023-02-28T16:57:03;15.43;;;9.73;;
43070;SDS011;36278;47.952;21.714;2023-02-28T16:59:30;18.83;;;11.53;;
43070;SDS011;36278;47.952;21.714;2023-02-28T17:01:57;14.50;;;9.17;;
43070;SDS011;36278;47.952;21.714;2023-02-28T17:04:26;13.80;;;8.83;;
43070;SDS011;36278;47.952;21.714;2023-02-28T17:06:52;14.77;;;9.77;;
43070;SDS011;36278;47.952;21.714;2023-02-28T17:09:21;19.27;;;11.07;;
43070;SDS011;36278;47.952;21.714;2023-02-28T17:11:48;17.53;;;10.63;;
43070;SDS011;36278;47.952;21.714;2023-02-28T17:14:14;13.97;;;10.13;;
43070;SDS011;36278;47.952;21.714;2023-02-28T17:16:40;14.47;;;10.50;;
43070;SDS011;36278;47.952;21.714;2023-02-28T17:19:11;14.37;;;9.63;;
43070;SDS011;36278;47.952;21.714;2023-02-28T17:21:38;17.63;;;12.07;;
43070;SDS011;36278;47.952;21.714;2023-02-28T17:24:06;16.07;;;10.17;;
43070;SDS011;36278;47.952;21.714;2023-02-28T17:26:33;12.57;;;9.20;;
43070;SDS011;36278;47.952;21.714;2023-02-28T17:28:58;14.67;;;9.80;;
43070;SDS011;36278;47.952;21.714;2023-02-28T17:31:24;16.53;;;10.67;;
43070;SDS011;36278;47.952;21.714;2023-02-28T17:33:52;13.23;;;10.40;;
43070;SDS011;36278;47.952;21.714;2023-02-28T17:36:23;14.80;;;9.93;;